Time;durP1;ratioP1;P1;durP2;ratioP2;P2;SDS_P1;SDS_P2;PMS_P1;PMS_P2;Temp;Humidity;BMP_temperature;BMP_pressure;BME280_temperature;BME280_humidity;BME280_pressure;Samples;Min_cycle;Max_cycle;Signal;HPM_P1;HPM_P2
2021/08/11 00:01:30;;;;;;;8.15;5.45;;;27.10;77.80;;;;;;5014871;28;20045;-66
2021/08/11 00:03:55;;;;;;;9.77;6.88;;;27.00;78.70;;;;;;5028776;28;20048;-66
2021/08/11 00:06:21;;;;;;;7.38;6.65;;;27.00;78.60;;;;;;5014590;28;20061;-61
2021/08/11 00:08:47;;;;;;;6.72;6.05;;;27.00;78.80;;;;;;5023315;28;20034;-67
2021/08/11 00:11:14;;;;;;;8.52;6.28;;;26.90;79.60;;;;;;4997488;28;20049;-67
2021/08/11 00:13:39;;;;;;;7.47;6.72;;;27.00;79.90;;;;;;5022172;28;20053;-67
2021/08/11 00:16:05;;;;;;;8.18;6.25;;;26.90;80.20;;;;;;5015329;28;20038;-67
2021/08/11 00:18:31;;;;;;;9.00;6.53;;;26.80;80.30;;;;;;5025290;28;20074;-67
2021/08/11 00:20:57;;;;;;;7.53;6.38;;;26.70;81.20;;;;;;5021953;28;20115;-67
2021/08/11 00:23:25;;;;;;;8.98;6.28;;;26.80;81.20;;;;;;5023601;28;20388;-66
2021/08/11 00:25:53;;;;;;;6.70;5.80;;;26.90;81.10;;;;;;5010185;28;20100;-67
2021/08/11 00:28:23;;;;;;;8.55;6.78;;;26.80;81.50;;;;;;5015953;28;20033;-67
2021/08/11 00:30:48;;;;;;;8.45;6.50;;;26.70;82.00;;;;;;5016674;28;20043;-67
2021/08/11 00:33:14;;;;;;;7.82;6.95;;;26.80;81.60;;;;;;5014648;28;20029;-67
2021/08/11 00:35:40;;;;;;;9.45;6.60;;;26.80;81.60;;;;;;5017797;28;20033;-67
2021/08/11 00:38:05;;;;;;;7.63;6.40;;;26.60;81.90;;;;;;5012444;28;20486;-67
2021/08/11 00:40:32;;;;;;;8.10;6.82;;;26.70;82.30;;;;;;5026849;28;20029;-67
2021/08/11 00:42:58;;;;;;;9.35;7.05;;;26.60;82.40;;;;;;5010261;28;20042;-67
2021/08/11 00:45:24;;;;;;;6.90;6.28;;;26.70;82.70;;;;;;5016735;28;20406;-67
2021/08/11 00:47:51;;;;;;;10.63;6.18;;;26.60;82.30;;;;;;5010038;28;20100;-67
2021/08/11 00:50:18;;;;;;;7.57;6.82;;;26.60;82.70;;;;;;5012694;28;20040;-67
2021/08/11 00:52:43;;;;;;;7.32;6.63;;;26.60;82.90;;;;;;5022771;28;20048;-67
2021/08/11 00:55:10;;;;;;;12.40;6.55;;;26.50;83.10;;;;;;5020621;28;20041;-67
2021/08/11 00:57:37;;;;;;;8.52;7.70;;;26.50;83.00;;;;;;5014049;28;20037;-67
2021/08/11 01:00:03;;;;;;;11.25;7.15;;;26.40;83.30;;;;;;5003890;28;20038;-67
2021/08/11 01:02:30;;;;;;;9.38;7.80;;;26.50;84.10;;;;;;5021916;28;20034;-66
2021/08/11 01:05:00;;;;;;;10.27;6.78;;;26.40;84.10;;;;;;5016759;28;20041;-67
2021/08/11 01:07:32;;;;;;;12.02;6.75;;;26.40;84.40;;;;;;4999935;28;20046;-66
2021/08/11 01:09:58;;;;;;;10.32;6.82;;;26.40;85.40;;;;;;5005217;28;20034;-67
2021/08/11 01:12:25;;;;;;;9.43;6.82;;;26.30;85.20;;;;;;5012994;28;20120;-67
2021/08/11 01:14:52;;;;;;;11.40;7.25;;;26.30;85.10;;;;;;5012571;28;20041;-67
2021/08/11 01:17:22;;;;;;;7.20;6.43;;;26.30;84.60;;;;;;5008606;28;20046;-67
2021/08/11 01:19:48;;;;;;;8.40;7.47;;;26.40;84.50;;;;;;5016780;28;20436;-67
2021/08/11 01:22:22;;;;;;;9.55;6.95;;;26.30;85.00;;;;;;5027448;28;20179;-67
2021/08/11 01:25:30;;;;;;;11.30;7.32;;;26.30;85.60;;;;;;5011060;28;20436;-67
2021/08/11 01:28:30;;;;;;;7.85;6.80;;;26.20;87.40;;;;;;4972283;28;20034;-65
2021/08/11 01:31:05;;;;;;;9.48;6.85;;;26.20;86.10;;;;;;5018188;28;20136;-67
2021/08/11 01:33:45;;;;;;;7.68;6.88;;;26.10;86.70;;;;;;5027495;28;20513;-67
2021/08/11 01:36:20;;;;;;;8.27;6.43;;;26.00;87.00;;;;;;5006346;28;20384;-67
2021/08/11 01:38:57;;;;;;;7.65;6.82;;;26.10;87.00;;;;;;5028619;28;20041;-67
2021/08/11 01:41:29;;;;;;;7.97;6.60;;;26.10;85.50;;;;;;5028253;28;20130;-66
2021/08/11 01:43:57;;;;;;;7.13;6.43;;;26.00;86.20;;;;;;5031411;28;20033;-66
2021/08/11 01:46:25;;;;;;;10.10;5.95;;;25.90;86.10;;;;;;5024195;28;20042;-66
2021/08/11 01:48:52;;;;;;;10.25;6.78;;;25.90;86.60;;;;;;5030305;28;20569;-66
2021/08/11 01:51:18;;;;;;;7.70;7.00;;;26.00;86.30;;;;;;5017510;28;20063;-67
2021/08/11 01:53:44;;;;;;;7.93;6.68;;;25.90;85.80;;;;;;5011455;28;20095;-66
2021/08/11 01:56:14;;;;;;;8.80;6.75;;;25.90;86.00;;;;;;5005569;28;20093;-66
2021/08/11 01:58:41;;;;;;;9.88;7.25;;;25.90;86.10;;;;;;5009569;28;20464;-66
2021/08/11 02:01:07;;;;;;;7.00;6.35;;;26.00;85.60;;;;;;5004892;28;20049;-66
2021/08/11 02:03:33;;;;;;;7.72;6.43;;;25.80;85.90;;;;;;5020044;28;20033;-66
2021/08/11 02:05:59;;;;;;;13.30;7.38;;;25.80;86.30;;;;;;5016635;28;20037;-66
2021/08/11 02:08:26;;;;;;;7.60;6.10;;;25.80;86.60;;;;;;5013457;28;20490;-66
2021/08/11 02:10:57;;;;;;;9.77;7.10;;;25.70;86.50;;;;;;5016887;28;20057;-64
2021/08/11 02:13:24;;;;;;;7.38;6.68;;;25.80;87.70;;;;;;5029164;28;20060;-66
2021/08/11 02:15:51;;;;;;;8.65;6.95;;;25.80;86.90;;;;;;5027383;28;20115;-67
2021/08/11 02:18:17;;;;;;;7.53;6.80;;;25.80;86.40;;;;;;5028158;28;20495;-67
2021/08/11 02:20:43;;;;;;;7.90;6.70;;;25.80;86.30;;;;;;5022504;28;20048;-67
2021/08/11 02:23:09;;;;;;;7.97;7.15;;;25.80;86.70;;;;;;5019968;28;20052;-67
2021/08/11 02:25:57;;;;;;;8.20;7.38;;;25.80;86.70;;;;;;5003663;28;20084;-67
2021/08/11 02:28:32;;;;;;;8.18;6.95;;;25.80;86.70;;;;;;4986956;28;20045;-66
2021/08/11 02:31:05;;;;;;;7.07;6.20;;;25.80;87.20;;;;;;5008701;28;20046;-67
2021/08/11 02:33:42;;;;;;;9.55;7.75;;;25.70;87.20;;;;;;5011355;28;20037;-67
2021/08/11 02:36:22;;;;;;;8.85;6.88;;;25.70;87.60;;;;;;5028565;28;20062;-67
2021/08/11 02:38:49;;;;;;;8.52;7.63;;;25.70;89.20;;;;;;4995881;28;20038;-66
2021/08/11 02:41:21;;;;;;;8.05;6.80;;;25.60;87.30;;;;;;5008922;28;20392;-67
2021/08/11 02:44:32;;;;;;;9.18;7.15;;;25.70;89.10;;;;;;5020246;28;20045;-67
2021/08/11 02:46:58;;;;;;;9.25;6.72;;;25.50;88.80;;;;;;4954007;28;22111;-67
2021/08/11 02:49:30;;;;;;;8.55;6.03;;;25.50;88.30;;;;;;5013043;28;20083;-66
2021/08/11 02:51:59;;;;;;;9.45;7.30;;;25.60;88.50;;;;;;5024978;28;20103;-67
2021/08/11 02:54:26;;;;;;;8.60;6.68;;;25.50;88.90;;;;;;5027152;28;20048;-67
2021/08/11 02:56:53;;;;;;;7.68;6.75;;;25.40;89.00;;;;;;5028607;28;20061;-65
2021/08/11 02:59:21;;;;;;;7.88;7.00;;;25.30;90.10;;;;;;5023843;28;20487;-67
2021/08/11 03:01:47;;;;;;;7.95;7.13;;;25.40;90.50;;;;;;5026594;28;20041;-67
2021/08/11 03:04:14;;;;;;;10.73;7.22;;;25.50;90.50;;;;;;5025053;28;20094;-67
2021/08/11 03:06:40;;;;;;;7.90;7.13;;;25.50;90.00;;;;;;5010946;28;20045;-67
2021/08/11 03:09:07;;;;;;;7.57;6.78;;;25.50;90.30;;;;;;5020347;28;20072;-67
2021/08/11 03:11:34;;;;;;;10.30;7.65;;;25.50;90.40;;;;;;5009998;28;20404;-67
2021/08/11 03:14:02;;;;;;;9.00;7.82;;;25.50;90.60;;;;;;5014657;28;20049;-66
2021/08/11 03:16:28;;;;;;;12.25;6.75;;;25.40;91.00;;;;;;5012708;28;20045;-66
2021/08/11 03:18:54;;;;;;;8.65;7.70;;;25.40;90.70;;;;;;5015394;28;20048;-66
2021/08/11 03:21:20;;;;;;;7.63;6.82;;;25.40;90.80;;;;;;5024789;28;20038;-67
2021/08/11 03:23:46;;;;;;;8.98;7.65;;;25.40;90.90;;;;;;5019177;28;20044;-66
2021/08/11 03:26:13;;;;;;;8.52;7.60;;;25.40;91.10;;;;;;5030470;28;20045;-66
2021/08/11 03:28:38;;;;;;;8.88;8.05;;;25.30;91.40;;;;;;5023254;28;20041;-66
2021/08/11 03:31:04;;;;;;;9.25;8.02;;;25.30;91.80;;;;;;5017890;28;20141;-66
2021/08/11 03:33:30;;;;;;;8.73;8.02;;;25.30;91.60;;;;;;5015994;28;20030;-67
2021/08/11 03:35:55;;;;;;;10.30;8.15;;;25.20;92.00;;;;;;5028975;28;20033;-66
2021/08/11 03:38:21;;;;;;;8.90;7.68;;;25.30;91.90;;;;;;5029712;28;20044;-67
2021/08/11 03:40:46;;;;;;;10.98;8.25;;;25.30;92.00;;;;;;5023733;28;20033;-66
2021/08/11 03:43:12;;;;;;;11.27;8.30;;;25.30;92.00;;;;;;5027313;28;20072;-66
2021/08/11 03:45:38;;;;;;;9.43;7.65;;;25.30;92.30;;;;;;5022300;28;20474;-66
2021/08/11 03:48:04;;;;;;;9.18;8.20;;;25.30;92.30;;;;;;5010046;28;20038;-66
2021/08/11 03:50:30;;;;;;;8.52;7.70;;;25.30;92.20;;;;;;5000894;28;20103;-66
2021/08/11 03:52:55;;;;;;;8.73;7.57;;;25.30;92.40;;;;;;5011551;28;20124;-66
2021/08/11 03:55:21;;;;;;;9.48;8.07;;;25.30;92.50;;;;;;5018981;28;20140;-66
2021/08/11 03:57:47;;;;;;;10.00;8.30;;;25.30;92.60;;;;;;5024657;28;20128;-67
2021/08/11 04:00:13;;;;;;;8.50;7.70;;;25.20;92.70;;;;;;4998178;28;20029;-66
2021/08/11 04:02:39;;;;;;;9.60;8.50;;;25.30;92.60;;;;;;5027664;28;20510;-67
2021/08/11 04:05:06;;;;;;;11.68;8.25;;;25.20;93.10;;;;;;5010483;28;20124;-67
2021/08/11 04:07:32;;;;;;;9.25;7.82;;;25.10;93.30;;;;;;5016846;28;20475;-66
2021/08/11 04:09:57;;;;;;;12.63;9.90;;;25.20;93.30;;;;;;5019245;28;20042;-66
2021/08/11 04:12:23;;;;;;;8.63;7.68;;;25.10;93.20;;;;;;5007462;28;20045;-66
2021/08/11 04:14:48;;;;;;;11.70;7.95;;;25.20;93.30;;;;;;5010265;28;20373;-67
2021/08/11 04:17:14;;;;;;;9.10;8.20;;;25.10;93.70;;;;;;5002622;28;20041;-66
2021/08/11 04:19:40;;;;;;;8.75;7.85;;;25.10;93.40;;;;;;5018180;28;20037;-67
2021/08/11 04:22:05;;;;;;;8.65;7.90;;;25.10;93.30;;;;;;5020512;28;20042;-68
2021/08/11 04:24:31;;;;;;;7.43;6.80;;;25.20;92.80;;;;;;5021195;28;20033;-67
2021/08/11 04:26:56;;;;;;;8.15;7.00;;;25.10;92.70;;;;;;4992795;28;20048;-67
2021/08/11 04:29:22;;;;;;;9.02;6.93;;;25.10;92.70;;;;;;5011549;28;20399;-65
2021/08/11 04:31:47;;;;;;;7.30;6.55;;;25.00;92.50;;;;;;5024305;28;20053;-67
2021/08/11 04:34:13;;;;;;;7.22;5.95;;;25.00;92.50;;;;;;5026397;28;20442;-67
2021/08/11 04:36:39;;;;;;;8.57;6.47;;;25.10;92.20;;;;;;5019722;28;20041;-67
2021/08/11 04:39:04;;;;;;;6.93;6.22;;;25.00;92.00;;;;;;5024595;28;20053;-67
2021/08/11 04:41:30;;;;;;;8.38;7.13;;;25.00;91.90;;;;;;5019902;28;20041;-67
2021/08/11 04:43:56;;;;;;;10.88;6.38;;;25.00;91.90;;;;;;5026778;28;20037;-67
2021/08/11 04:46:21;;;;;;;7.60;5.80;;;24.90;91.80;;;;;;5007319;28;20077;-67
2021/08/11 04:48:47;;;;;;;8.18;6.07;;;24.90;91.90;;;;;;5015910;28;20171;-67
2021/08/11 04:51:13;;;;;;;8.52;6.75;;;24.90;91.70;;;;;;5006258;28;20495;-67
2021/08/11 04:53:38;;;;;;;6.50;5.82;;;24.90;91.90;;;;;;5001832;28;20050;-67
2021/08/11 04:56:04;;;;;;;6.78;6.18;;;24.90;92.00;;;;;;5012652;28;20646;-67
2021/08/11 04:58:29;;;;;;;7.47;5.80;;;24.90;92.00;;;;;;5026049;28;20040;-66
2021/08/11 05:00:55;;;;;;;7.13;6.43;;;24.80;92.30;;;;;;5032559;28;20099;-66
2021/08/11 05:03:20;;;;;;;7.82;5.70;;;24.80;92.50;;;;;;5030828;28;20057;-67
2021/08/11 05:05:46;;;;;;;6.82;6.22;;;24.80;92.40;;;;;;5033865;28;20045;-67
2021/08/11 05:08:12;;;;;;;7.10;5.72;;;24.80;92.90;;;;;;5028813;28;20065;-66
2021/08/11 05:10:37;;;;;;;9.13;6.18;;;24.80;92.50;;;;;;5033214;28;20546;-66
2021/08/11 05:13:03;;;;;;;6.50;5.90;;;24.80;92.20;;;;;;5026845;28;20030;-67
2021/08/11 05:15:29;;;;;;;7.90;5.75;;;24.70;92.70;;;;;;5013627;28;20133;-66
2021/08/11 05:17:54;;;;;;;6.45;5.60;;;24.80;92.40;;;;;;5027010;28;20398;-66
2021/08/11 05:20:20;;;;;;;6.97;5.80;;;24.90;92.20;;;;;;5022796;28;20422;-67
2021/08/11 05:22:48;;;;;;;7.90;5.22;;;24.80;92.60;;;;;;5011548;28;20049;-67
2021/08/11 05:25:13;;;;;;;9.77;6.28;;;24.80;92.50;;;;;;5015599;28;20030;-67
2021/08/11 05:27:40;;;;;;;6.03;5.45;;;24.80;92.20;;;;;;5016327;28;20498;-67
2021/08/11 05:30:08;;;;;;;7.00;5.55;;;24.90;92.40;;;;;;5009839;28;20030;-67
2021/08/11 05:32:34;;;;;;;9.18;6.28;;;24.80;92.20;;;;;;5001695;28;20531;-67
2021/08/11 05:35:00;;;;;;;9.73;5.57;;;24.90;92.20;;;;;;5011105;28;20044;-67
2021/08/11 05:37:26;;;;;;;5.80;5.25;;;24.90;92.10;;;;;;5022477;28;20582;-67
2021/08/11 05:39:52;;;;;;;6.88;6.20;;;24.90;92.20;;;;;;5010630;28;20427;-67
2021/08/11 05:42:17;;;;;;;8.38;6.15;;;24.90;92.20;;;;;;5014257;28;20068;-67
2021/08/11 05:44:43;;;;;;;7.43;5.45;;;25.00;91.80;;;;;;5014452;28;20065;-67
2021/08/11 05:47:11;;;;;;;6.80;5.93;;;24.90;92.00;;;;;;5016243;28;20066;-67
2021/08/11 05:49:36;;;;;;;7.35;5.75;;;25.00;92.10;;;;;;5015284;28;20042;-67
2021/08/11 05:52:04;;;;;;;6.47;5.53;;;25.10;92.10;;;;;;5015535;28;20148;-67
2021/08/11 05:54:30;;;;;;;9.85;6.40;;;25.10;92.00;;;;;;5022893;28;20104;-67
2021/08/11 05:56:56;;;;;;;6.80;5.57;;;25.10;91.70;;;;;;4997976;28;20076;-67
2021/08/11 05:59:22;;;;;;;6.47;5.80;;;25.10;91.80;;;;;;5012039;28;20658;-68
2021/08/11 06:01:47;;;;;;;7.75;6.95;;;25.20;91.70;;;;;;5013604;28;20120;-68
2021/08/11 06:04:13;;;;;;;7.10;6.45;;;25.20;91.60;;;;;;5004510;28;20084;-68
2021/08/11 06:06:38;;;;;;;7.50;6.22;;;25.20;91.70;;;;;;5013619;28;20049;-68
2021/08/11 06:09:04;;;;;;;10.85;6.78;;;25.20;91.30;;;;;;5026722;28;20041;-67
2021/08/11 06:11:29;;;;;;;7.75;6.75;;;25.30;91.60;;;;;;5005892;28;20137;-67
2021/08/11 06:13:55;;;;;;;8.57;6.50;;;25.30;91.50;;;;;;5013177;28;20073;-67
2021/08/11 06:16:21;;;;;;;7.18;6.47;;;25.30;91.40;;;;;;5007279;28;20403;-68
2021/08/11 06:18:46;;;;;;;7.13;6.32;;;25.30;91.40;;;;;;5024501;28;20057;-68
2021/08/11 06:21:12;;;;;;;8.65;6.93;;;25.40;91.20;;;;;;5006073;28;20465;-68
2021/08/11 06:23:38;;;;;;;7.75;6.90;;;25.40;91.20;;;;;;5029540;28;20025;-68
2021/08/11 06:26:03;;;;;;;11.65;7.43;;;25.50;91.20;;;;;;5023803;28;20045;-68
2021/08/11 06:28:29;;;;;;;13.30;7.93;;;25.50;91.40;;;;;;5029082;28;20576;-68
2021/08/11 06:30:55;;;;;;;9.02;7.47;;;25.50;91.40;;;;;;5016214;28;20050;-67
2021/08/11 06:33:20;;;;;;;11.98;9.23;;;25.50;91.70;;;;;;5005849;28;20037;-68
2021/08/11 06:35:46;;;;;;;11.25;8.63;;;25.50;91.90;;;;;;5016073;28;20046;-68
2021/08/11 06:38:11;;;;;;;9.48;7.85;;;25.50;92.00;;;;;;5027561;28;20044;-68
2021/08/11 06:40:38;;;;;;;9.43;8.35;;;25.50;92.20;;;;;;5026103;28;20099;-68
2021/08/11 06:43:04;;;;;;;9.85;8.65;;;25.60;92.20;;;;;;5018353;28;20034;-68
2021/08/11 06:45:30;;;;;;;14.13;8.95;;;25.60;92.20;;;;;;5014444;28;20026;-67
2021/08/11 06:47:56;;;;;;;10.68;9.00;;;25.60;91.90;;;;;;5018812;28;20495;-67
2021/08/11 06:50:22;;;;;;;14.90;9.30;;;25.60;92.00;;;;;;5023936;28;20128;-67
2021/08/11 06:52:48;;;;;;;10.05;8.75;;;25.70;91.80;;;;;;5020606;28;20075;-68
2021/08/11 06:55:15;;;;;;;10.18;8.93;;;25.70;91.80;;;;;;5021953;28;20072;-68
2021/08/11 06:57:42;;;;;;;11.63;9.43;;;25.70;91.90;;;;;;5023337;28;20042;-67
2021/08/11 07:00:09;;;;;;;11.27;10.13;;;25.70;91.90;;;;;;5028985;28;20065;-67
2021/08/11 07:02:35;;;;;;;9.98;8.70;;;25.70;91.70;;;;;;5024125;28;20040;-68
2021/08/11 07:05:01;;;;;;;13.95;10.40;;;25.80;91.80;;;;;;5024365;28;20340;-68
2021/08/11 07:07:27;;;;;;;13.98;9.73;;;25.80;91.80;;;;;;5026197;28;20096;-67
2021/08/11 07:09:54;;;;;;;13.07;9.05;;;25.90;91.40;;;;;;5004563;28;20495;-67
2021/08/11 07:12:20;;;;;;;12.52;9.00;;;25.90;91.20;;;;;;5016810;28;20045;-68
2021/08/11 07:14:47;;;;;;;16.77;9.88;;;26.00;91.10;;;;;;5027500;28;20042;-68
2021/08/11 07:17:13;;;;;;;18.20;10.02;;;26.00;91.00;;;;;;5021518;28;20041;-68
2021/08/11 07:19:39;;;;;;;13.93;9.45;;;26.10;91.10;;;;;;5027899;28;20037;-67
2021/08/11 07:22:06;;;;;;;13.25;9.13;;;26.10;90.90;;;;;;5020634;28;20041;-68
2021/08/11 07:24:31;;;;;;;10.38;8.43;;;26.10;91.20;;;;;;5022317;28;20044;-67
2021/08/11 07:26:57;;;;;;;12.65;9.02;;;26.30;91.20;;;;;;5023405;28;20129;-68
2021/08/11 07:29:22;;;;;;;15.25;9.02;;;26.30;90.80;;;;;;5019546;28;20042;-67
2021/08/11 07:31:48;;;;;;;9.73;7.55;;;26.30;90.40;;;;;;5031520;28;20132;-67
2021/08/11 07:34:14;;;;;;;8.27;6.63;;;26.30;90.20;;;;;;5021990;28;20025;-67
2021/08/11 07:36:39;;;;;;;7.93;7.13;;;26.40;88.70;;;;;;5028581;28;20045;-68
2021/08/11 07:39:05;;;;;;;9.75;8.35;;;26.40;89.00;;;;;;5009423;28;20443;-68
2021/08/11 07:41:30;;;;;;;12.27;7.07;;;26.50;88.60;;;;;;5010671;28;20052;-68
2021/08/11 07:43:56;;;;;;;10.73;7.70;;;26.60;88.40;;;;;;5006255;28;20435;-67
2021/08/11 07:46:25;;;;;;;9.60;8.35;;;26.60;88.60;;;;;;5003465;28;20041;-68
2021/08/11 07:48:50;;;;;;;9.65;8.30;;;26.80;86.90;;;;;;4999041;28;20087;-68
2021/08/11 07:51:16;;;;;;;11.40;8.80;;;26.80;86.70;;;;;;5013330;28;20045;-68
2021/08/11 07:53:41;;;;;;;14.38;9.43;;;26.80;86.30;;;;;;5016616;28;20064;-68
2021/08/11 07:56:07;;;;;;;13.88;8.52;;;26.90;87.00;;;;;;5015816;28;20484;-68
2021/08/11 07:58:33;;;;;;;10.90;7.85;;;27.00;86.40;;;;;;5019248;28;20029;-67
2021/08/11 08:00:59;;;;;;;11.43;7.82;;;27.20;86.00;;;;;;5018957;28;20037;-68
2021/08/11 08:03:24;;;;;;;9.05;8.13;;;27.10;85.60;;;;;;5015649;28;20045;-67
2021/08/11 08:05:50;;;;;;;10.27;7.57;;;27.00;85.00;;;;;;5019915;28;20507;-68
2021/08/11 08:08:16;;;;;;;11.30;8.80;;;27.10;85.60;;;;;;5020845;28;20053;-68
2021/08/11 08:10:41;;;;;;;12.18;9.50;;;27.00;86.10;;;;;;5008386;28;20412;-68
2021/08/11 08:13:07;;;;;;;8.70;7.80;;;26.90;86.00;;;;;;5025159;28;20029;-68
2021/08/11 08:15:33;;;;;;;11.43;8.63;;;27.00;86.50;;;;;;5019965;28;20036;-67
2021/08/11 08:17:58;;;;;;;9.25;8.25;;;27.00;86.80;;;;;;5027334;28;20119;-66
2021/08/11 08:20:24;;;;;;;10.38;8.93;;;27.00;87.00;;;;;;5022222;28;20501;-67
2021/08/11 08:22:49;;;;;;;10.85;9.55;;;27.10;86.90;;;;;;5027298;28;20068;-67
2021/08/11 08:25:20;;;;;;;12.02;8.80;;;27.00;87.00;;;;;;5022408;28;20045;-67
2021/08/11 08:27:46;;;;;;;15.35;9.40;;;27.10;87.10;;;;;;5025262;28;20066;-67
2021/08/11 08:30:12;;;;;;;10.45;8.07;;;27.10;86.40;;;;;;5010093;28;20527;-67
2021/08/11 08:32:37;;;;;;;15.32;9.25;;;27.20;85.20;;;;;;5009240;28;20052;-67
2021/08/11 08:35:04;;;;;;;10.27;8.95;;;27.20;85.90;;;;;;5011703;28;20021;-67
2021/08/11 08:37:37;;;;;;;8.82;7.55;;;27.30;85.10;;;;;;5024479;28;20380;-66
2021/08/11 08:40:13;;;;;;;11.77;8.37;;;27.30;84.30;;;;;;5025822;28;20090;-67
2021/08/11 08:42:43;;;;;;;9.57;8.63;;;27.40;83.10;;;;;;5022254;28;20048;-67
2021/08/11 08:45:12;;;;;;;10.00;7.97;;;27.40;83.30;;;;;;5022300;28;20036;-67
2021/08/11 08:47:39;;;;;;;14.38;7.20;;;27.50;81.80;;;;;;5022633;28;20065;-67
2021/08/11 08:50:10;;;;;;;13.23;8.27;;;27.60;81.30;;;;;;5021288;28;20490;-67
2021/08/11 08:52:37;;;;;;;10.23;8.32;;;27.60;81.30;;;;;;4998072;28;20045;-66
2021/08/11 08:55:04;;;;;;;9.55;7.40;;;27.60;81.20;;;;;;5005331;28;20049;-67
2021/08/11 08:57:30;;;;;;;10.68;8.07;;;27.70;80.70;;;;;;5007284;28;20503;-67
2021/08/11 08:59:56;;;;;;;8.07;7.25;;;27.70;80.60;;;;;;5003753;28;20034;-66
2021/08/11 09:02:22;;;;;;;11.35;7.80;;;27.80;80.30;;;;;;5022188;28;20117;-67
2021/08/11 09:04:50;;;;;;;13.48;9.15;;;27.90;79.80;;;;;;5026647;28;20040;-67
2021/08/11 09:07:20;;;;;;;10.90;8.80;;;27.80;80.10;;;;;;5023521;28;20042;-67
2021/08/11 09:09:46;;;;;;;9.40;7.22;;;27.80;80.00;;;;;;5021387;28;20042;-67
2021/08/11 09:12:16;;;;;;;11.70;7.95;;;27.80;80.10;;;;;;5018089;28;20530;-67
2021/08/11 09:14:47;;;;;;;9.93;7.70;;;27.90;80.10;;;;;;5026853;28;20182;-67
2021/08/11 09:17:37;;;;;;;11.60;7.60;;;28.10;79.60;;;;;;5022140;28;20593;-67
2021/08/11 09:20:05;;;;;;;10.55;7.85;;;28.20;79.30;;;;;;4970183;28;20045;-67
2021/08/11 09:22:51;;;;;;;9.38;8.30;;;28.30;78.40;;;;;;5006577;28;20036;-67
2021/08/11 09:25:18;;;;;;;8.13;7.30;;;28.30;77.80;;;;;;5021146;28;20045;-67
2021/08/11 09:27:46;;;;;;;10.18;8.45;;;28.40;78.10;;;;;;5016122;28;20042;-67
2021/08/11 09:30:20;;;;;;;10.63;8.13;;;28.40;76.10;;;;;;5005780;28;20091;-67
2021/08/11 09:32:46;;;;;;;9.45;7.90;;;28.40;75.10;;;;;;5015260;28;20056;-67
2021/08/11 09:35:12;;;;;;;10.45;7.25;;;28.50;75.60;;;;;;5021820;28;20048;-67
2021/08/11 09:37:39;;;;;;;9.07;6.68;;;28.60;75.50;;;;;;5019880;28;20468;-67
2021/08/11 09:40:13;;;;;;;7.80;6.97;;;28.60;74.40;;;;;;5010802;28;20119;-67
2021/08/11 09:42:40;;;;;;;9.35;6.88;;;28.70;73.70;;;;;;5028226;28;20034;-67
2021/08/11 09:45:08;;;;;;;12.90;7.35;;;28.80;73.60;;;;;;5014361;28;20073;-67
2021/08/11 09:47:35;;;;;;;10.15;8.18;;;28.80;73.40;;;;;;5025100;28;20034;-67
2021/08/11 09:50:04;;;;;;;10.10;7.35;;;29.00;71.60;;;;;;5022945;28;20768;-67
2021/08/11 09:52:50;;;;;;;10.50;7.65;;;29.10;71.80;;;;;;5020359;28;20041;-67
2021/08/11 09:55:17;;;;;;;12.05;8.35;;;29.20;70.40;;;;;;5012847;28;20191;-67
2021/08/11 09:57:44;;;;;;;11.13;7.43;;;29.40;69.90;;;;;;5013263;28;20022;-67
2021/08/11 10:00:14;;;;;;;9.45;8.23;;;29.30;69.80;;;;;;5021299;28;20033;-67
2021/08/11 10:02:43;;;;;;;10.25;7.88;;;29.40;69.00;;;;;;5029027;28;20135;-67
2021/08/11 10:05:29;;;;;;;10.35;8.57;;;29.40;68.00;;;;;;5017736;28;20068;-67
2021/08/11 10:07:55;;;;;;;9.35;7.88;;;29.50;67.30;;;;;;5018231;28;20419;-67
2021/08/11 10:10:21;;;;;;;8.95;7.55;;;29.40;67.70;;;;;;5026835;28;20038;-67
2021/08/11 10:12:48;;;;;;;9.48;8.05;;;29.50;67.40;;;;;;5007656;28;20037;-67
2021/08/11 10:15:15;;;;;;;10.20;8.32;;;29.60;66.90;;;;;;5023939;28;20049;-68
2021/08/11 10:17:42;;;;;;;11.02;8.57;;;29.60;66.20;;;;;;5030507;28;20377;-67
2021/08/11 10:20:08;;;;;;;10.90;8.00;;;29.70;65.50;;;;;;5017284;28;20033;-67
2021/08/11 10:22:37;;;;;;;8.35;7.35;;;29.60;66.00;;;;;;5016190;28;20144;-67
2021/08/11 10:25:04;;;;;;;9.40;7.38;;;29.70;67.00;;;;;;5023936;28;20041;-67
2021/08/11 10:27:30;;;;;;;9.32;6.90;;;30.00;65.10;;;;;;5013738;28;20033;-67
2021/08/11 10:29:57;;;;;;;8.55;7.38;;;30.10;64.50;;;;;;5024632;28;20073;-67
2021/08/11 10:32:23;;;;;;;8.45;7.05;;;30.10;64.20;;;;;;5021664;28;20404;-67
2021/08/11 10:34:53;;;;;;;11.00;7.28;;;30.20;63.50;;;;;;5010321;28;20037;-68
2021/08/11 10:37:19;;;;;;;10.70;7.88;;;30.40;63.20;;;;;;5009225;28;20029;-67
2021/08/11 10:39:46;;;;;;;7.65;6.88;;;30.20;63.20;;;;;;5019499;28;20500;-67
2021/08/11 10:42:16;;;;;;;11.30;7.35;;;30.30;62.50;;;;;;5023637;28;20503;-67
2021/08/11 10:44:43;;;;;;;10.38;6.95;;;30.30;62.40;;;;;;5030239;28;20052;-67
2021/08/11 10:47:11;;;;;;;8.73;7.28;;;30.40;62.10;;;;;;5023608;28;20046;-67
2021/08/11 10:49:53;;;;;;;8.32;7.45;;;30.70;60.70;;;;;;5026380;28;20033;-67
2021/08/11 10:52:18;;;;;;;10.05;8.02;;;30.70;59.60;;;;;;5024040;28;20049;-67
2021/08/11 10:54:54;;;;;;;8.48;7.55;;;30.60;60.60;;;;;;5025770;28;20068;-67
2021/08/11 10:57:38;;;;;;;9.55;7.63;;;30.80;61.40;;;;;;5018916;28;20125;-67
2021/08/11 11:00:06;;;;;;;8.75;7.72;;;31.00;60.20;;;;;;4988371;28;20072;-67
2021/08/11 11:02:38;;;;;;;8.18;7.38;;;31.20;59.90;;;;;;5000718;28;20045;-67
2021/08/11 11:05:05;;;;;;;7.88;6.93;;;31.30;58.90;;;;;;5010636;28;20034;-67
2021/08/11 11:07:31;;;;;;;10.73;7.25;;;31.30;59.00;;;;;;5008737;28;20038;-67
2021/08/11 11:10:23;;;;;;;11.48;8.25;;;31.50;58.50;;;;;;5013979;28;20158;-67
2021/08/11 11:12:49;;;;;;;9.45;7.95;;;31.80;57.40;;;;;;5018381;28;20553;-67
2021/08/11 11:15:14;;;;;;;10.43;7.30;;;31.60;58.00;;;;;;5019934;28;20076;-67
2021/08/11 11:18:17;;;;;;;9.48;7.57;;;31.80;58.10;;;;;;5022435;28;20169;-67
2021/08/11 11:20:43;;;;;;;9.32;8.52;;;31.90;55.90;;;;;;4983915;28;20498;-67
2021/08/11 11:23:09;;;;;;;11.23;7.55;;;31.90;56.80;;;;;;5022606;28;20120;-67
2021/08/11 11:26:00;;;;;;;7.70;6.82;;;32.00;56.40;;;;;;5018607;28;20034;-67
2021/08/11 11:28:59;;;;;;;9.38;7.28;;;32.30;54.80;;;;;;5005701;28;20041;-67
2021/08/11 11:31:28;;;;;;;10.20;8.13;;;33.10;52.50;;;;;;5023824;28;20466;-67
2021/08/11 11:33:54;;;;;;;9.70;7.63;;;33.60;52.30;;;;;;5016454;28;20042;-67
2021/08/11 11:36:23;;;;;;;10.10;7.10;;;33.60;50.10;;;;;;5008434;28;20049;-68
2021/08/11 11:39:06;;;;;;;8.35;7.32;;;33.70;49.40;;;;;;5005853;28;20063;-67
2021/08/11 11:41:33;;;;;;;8.03;7.30;;;34.10;47.20;;;;;;4983916;28;20066;-68
2021/08/11 11:44:36;;;;;;;9.88;7.78;;;34.50;46.70;;;;;;5001599;28;20365;-67
2021/08/11 11:47:02;;;;;;;9.35;8.18;;;35.40;44.70;;;;;;4991878;28;20064;-68
2021/08/11 11:49:28;;;;;;;9.15;8.35;;;35.30;44.50;;;;;;5018866;28;20075;-65
2021/08/11 11:51:54;;;;;;;8.20;7.32;;;35.30;41.30;;;;;;5028908;28;20045;-66
2021/08/11 11:54:20;;;;;;;9.40;8.50;;;36.80;40.30;;;;;;5022352;28;20103;-66
2021/08/11 11:56:49;;;;;;;8.52;7.70;;;39.00;36.60;;;;;;5028659;28;20219;-66
2021/08/11 11:59:15;;;;;;;13.93;8.20;;;39.20;35.00;;;;;;5022102;28;20491;-67
2021/08/11 12:01:41;;;;;;;8.55;7.78;;;38.00;35.40;;;;;;5024681;28;20057;-66
2021/08/11 12:04:07;;;;;;;9.43;8.52;;;37.60;35.90;;;;;;5021434;28;20133;-66
2021/08/11 12:06:40;;;;;;;8.85;7.72;;;37.50;35.80;;;;;;5035432;28;20052;-66
2021/08/11 12:09:06;;;;;;;11.32;8.30;;;37.60;36.30;;;;;;5022475;28;20041;-66
2021/08/11 12:11:34;;;;;;;8.55;7.75;;;37.00;37.70;;;;;;5024577;28;20598;-66
2021/08/11 12:14:01;;;;;;;8.70;7.88;;;37.30;38.20;;;;;;5024888;28;20491;-65
2021/08/11 12:16:37;;;;;;;9.10;7.63;;;37.50;37.30;;;;;;5003299;28;20038;-66
2021/08/11 12:19:14;;;;;;;9.15;7.72;;;37.70;35.80;;;;;;5003436;28;20053;-66
2021/08/11 12:21:41;;;;;;;8.63;7.80;;;38.30;35.90;;;;;;5010337;28;20064;-66
2021/08/11 12:24:07;;;;;;;8.85;7.43;;;38.40;35.60;;;;;;5004015;28;20474;-67
2021/08/11 12:26:33;;;;;;;9.27;8.30;;;38.80;34.70;;;;;;5008546;28;20088;-66
2021/08/11 12:28:59;;;;;;;8.32;7.63;;;38.70;33.60;;;;;;5008539;28;20229;-67
2021/08/11 12:31:26;;;;;;;9.48;8.70;;;39.50;33.70;;;;;;5007165;28;20503;-65
2021/08/11 12:33:54;;;;;;;11.07;8.60;;;40.10;32.10;;;;;;5029457;28;20041;-67
2021/08/11 12:36:23;;;;;;;9.70;7.93;;;41.30;30.30;;;;;;5017626;28;20125;-66
2021/08/11 12:39:13;;;;;;;8.40;7.45;;;41.30;28.80;;;;;;5024330;28;20116;-66
2021/08/11 12:42:01;;;;;;;7.88;7.15;;;;;;;;;;4965637;28;20099;-67
2021/08/11 12:44:30;;;;;;;8.35;7.43;;;40.80;33.70;;;;;;5023914;28;20044;-66
2021/08/11 12:46:57;;;;;;;8.90;7.60;;;;;;;;;;5020999;28;20195;-66
2021/08/11 12:49:23;;;;;;;9.55;8.25;;;42.80;40.70;;;;;;5026639;28;20040;-67